createdAt,value
2023-04-08T00:00:28.826Z,11.63
2023-04-08T00:02:57.172Z,11.17
2023-04-08T00:05:25.491Z,12.13
2023-04-08T00:07:53.647Z,11.90
2023-04-08T00:10:22.200Z,12.17
2023-04-08T00:12:51.733Z,12.97
2023-04-08T00:15:19.890Z,11.97
2023-04-08T00:17:48.047Z,11.13
2023-04-08T00:20:16.332Z,11.90
2023-04-08T00:22:44.536Z,12.17
2023-04-08T00:25:12.681Z,12.43
2023-04-08T00:27:40.809Z,11.17
2023-04-08T00:30:10.642Z,11.53
2023-04-08T00:32:39.006Z,12.37
2023-04-08T00:35:07.513Z,11.37
2023-04-08T00:37:35.690Z,12.53
2023-04-08T00:40:04.331Z,12.83
2023-04-08T00:42:32.643Z,12.53
2023-04-08T00:45:00.878Z,13.77
2023-04-08T00:47:30.459Z,12.37
2023-04-08T00:49:58.629Z,12.23
2023-04-08T00:52:26.820Z,13.20
2023-04-08T00:54:54.998Z,12.77
2023-04-08T00:57:23.232Z,13.17
2023-04-08T00:59:51.417Z,12.33
2023-04-08T01:02:25.095Z,13.70
2023-04-08T01:04:56.506Z,13.43
2023-04-08T01:07:28.579Z,13.63
2023-04-08T01:09:57.952Z,12.93
2023-04-08T01:12:28.314Z,13.73
2023-04-08T01:14:59.027Z,13.60
2023-04-08T01:17:27.237Z,13.90
2023-04-08T01:19:59.350Z,13.00
2023-04-08T01:22:30.306Z,13.97
2023-04-08T01:25:01.089Z,13.47
2023-04-08T01:27:32.416Z,14.97
2023-04-08T01:30:01.234Z,13.83
2023-04-08T01:32:30.764Z,13.53
2023-04-08T01:35:00.287Z,14.03
2023-04-08T01:37:29.983Z,13.53
2023-04-08T01:39:58.310Z,14.60
2023-04-08T01:42:27.120Z,14.23
2023-04-08T01:44:58.150Z,13.37
2023-04-08T01:47:27.374Z,14.43
2023-04-08T01:49:56.808Z,14.03
2023-04-08T01:52:25.349Z,13.70
2023-04-08T01:54:53.567Z,14.00
2023-04-08T01:57:24.401Z,15.07
2023-04-08T01:59:54.250Z,14.17
2023-04-08T02:02:24.634Z,14.47
2023-04-08T02:04:52.985Z,13.83
2023-04-08T02:07:21.339Z,14.10
2023-04-08T02:09:49.505Z,14.33
2023-04-08T02:12:17.725Z,14.33
2023-04-08T02:14:46.236Z,14.23
2023-04-08T02:17:15.762Z,14.47
2023-04-08T02:19:50.345Z,14.30
2023-04-08T02:22:21.375Z,14.13
2023-04-08T02:24:50.007Z,13.90
2023-04-08T02:27:19.136Z,14.20
2023-04-08T02:29:47.761Z,14.10
2023-04-08T02:32:16.416Z,14.47
2023-04-08T02:34:44.919Z,14.43
2023-04-08T02:37:14.437Z,14.17
2023-04-08T02:39:42.582Z,13.53
2023-04-08T02:42:11.954Z,14.37
2023-04-08T02:44:40.341Z,14.20
2023-04-08T02:47:08.574Z,14.30
2023-04-08T02:49:36.786Z,14.87
2023-04-08T02:52:05.368Z,14.07
2023-04-08T02:54:35.076Z,14.30
2023-04-08T02:57:03.317Z,14.40
2023-04-08T02:59:31.612Z,13.13
2023-04-08T03:01:59.790Z,14.17
2023-04-08T03:04:28.740Z,14.97
2023-04-08T03:06:56.935Z,14.97
2023-04-08T03:09:25.104Z,13.80
2023-04-08T03:11:54.973Z,14.50
2023-04-08T03:14:23.268Z,14.30
2023-04-08T03:16:51.502Z,14.63
2023-04-08T03:19:19.674Z,14.77
2023-04-08T03:21:47.831Z,13.90
2023-04-08T03:24:16.048Z,14.13
2023-04-08T03:26:44.222Z,14.63
2023-04-08T03:29:14.924Z,15.27
2023-04-08T03:31:43.267Z,14.87
2023-04-08T03:34:11.487Z,14.20
2023-04-08T03:36:39.640Z,15.47
2023-04-08T03:39:07.801Z,15.00
2023-04-08T03:41:35.979Z,14.03
2023-04-08T03:44:04.148Z,15.60
2023-04-08T03:46:33.663Z,14.63
2023-04-08T03:49:01.861Z,15.77
2023-04-08T03:51:30.476Z,14.83
2023-04-08T03:53:58.631Z,15.93
2023-04-08T03:56:26.818Z,17.03
2023-04-08T03:58:54.972Z,15.73
2023-04-08T04:01:23.179Z,15.83
2023-04-08T04:03:52.916Z,15.37
2023-04-08T04:06:21.293Z,16.17
2023-04-08T04:08:50.268Z,17.77
2023-04-08T04:11:18.630Z,16.73
2023-04-08T04:13:46.810Z,17.90
2023-04-08T04:16:15.021Z,16.00
2023-04-08T04:18:43.316Z,16.87
2023-04-08T04:21:14.081Z,17.53
2023-04-08T04:23:42.300Z,17.77
2023-04-08T04:26:10.982Z,17.67
2023-04-08T04:28:39.378Z,16.23
2023-04-08T04:31:07.619Z,17.20
2023-04-08T04:33:35.800Z,17.50
2023-04-08T04:36:03.989Z,17.37
2023-04-08T04:38:33.559Z,16.60
2023-04-08T04:41:01.892Z,17.43
2023-04-08T04:43:30.088Z,18.13
2023-04-08T04:45:58.281Z,17.20
2023-04-08T04:48:26.466Z,17.40
2023-04-08T04:50:57.579Z,16.97
2023-04-08T04:53:25.895Z,16.97
2023-04-08T04:55:55.497Z,16.30
2023-04-08T04:58:23.657Z,16.90
2023-04-08T05:00:51.822Z,17.40
2023-04-08T05:03:20.094Z,17.00
2023-04-08T05:05:52.238Z,17.47
2023-04-08T05:08:20.577Z,18.43
2023-04-08T05:10:50.118Z,18.23
2023-04-08T05:13:20.077Z,18.13
2023-04-08T05:15:48.344Z,17.80
2023-04-08T05:18:16.604Z,17.40
2023-04-08T05:20:44.795Z,18.57
2023-04-08T05:23:13.036Z,19.20
2023-04-08T05:25:41.273Z,17.20
2023-04-08T05:28:09.439Z,18.57
2023-04-08T05:30:38.944Z,18.33
2023-04-08T05:33:07.254Z,16.93
2023-04-08T05:35:35.463Z,17.27
2023-04-08T05:38:03.654Z,17.70
2023-04-08T05:40:31.815Z,17.10
2023-04-08T05:43:00.065Z,17.57
2023-04-08T05:45:29.327Z,18.33
2023-04-08T05:47:58.896Z,17.47
2023-04-08T05:50:27.167Z,18.80
2023-04-08T05:52:55.505Z,17.30
2023-04-08T05:55:23.807Z,17.37
2023-04-08T05:57:51.963Z,18.60
2023-04-08T06:00:21.299Z,18.33
2023-04-08T06:02:49.528Z,16.77
2023-04-08T06:05:19.656Z,17.37
2023-04-08T06:07:47.850Z,20.27
2023-04-08T06:10:16.186Z,20.37
2023-04-08T06:12:44.359Z,18.43
2023-04-08T06:15:12.573Z,20.47
2023-04-08T06:17:40.968Z,19.40
2023-04-08T06:20:10.336Z,19.27
2023-04-08T06:22:39.872Z,18.23
2023-04-08T06:25:08.387Z,18.00
2023-04-08T06:27:36.697Z,18.13
2023-04-08T06:30:05.063Z,18.17
2023-04-08T06:32:33.381Z,16.67
2023-04-08T06:35:02.075Z,17.97
2023-04-08T06:37:30.255Z,17.57
2023-04-08T06:39:59.845Z,17.13
2023-04-08T06:42:28.661Z,17.97
2023-04-08T06:44:56.823Z,17.23
2023-04-08T06:47:24.985Z,17.70
2023-04-08T06:49:54.249Z,16.67
2023-04-08T06:52:22.431Z,18.23
2023-04-08T06:54:50.806Z,17.77
2023-04-08T06:57:20.301Z,17.73
2023-04-08T06:59:48.452Z,17.17
2023-04-08T07:02:16.678Z,18.10
2023-04-08T07:04:46.781Z,17.77
2023-04-08T07:07:15.298Z,18.80
2023-04-08T07:09:45.866Z,18.23
2023-04-08T07:12:14.042Z,19.93
2023-04-08T07:14:43.545Z,17.53
2023-04-08T07:17:11.755Z,18.17
2023-04-08T07:19:40.062Z,18.70
2023-04-08T07:22:08.271Z,18.63
2023-04-08T07:24:36.462Z,20.63
2023-04-08T07:27:04.639Z,20.07
2023-04-08T07:29:32.851Z,19.63
2023-04-08T07:32:02.476Z,18.73
2023-04-08T07:34:30.649Z,19.03
2023-04-08T07:36:58.768Z,18.93
2023-04-08T07:39:26.984Z,18.23
2023-04-08T07:41:55.248Z,18.30
2023-04-08T07:44:23.407Z,18.60
2023-04-08T07:46:51.876Z,18.53
2023-04-08T07:49:21.460Z,18.20
2023-04-08T07:51:49.623Z,17.67
2023-04-08T07:54:18.074Z,17.47
2023-04-08T07:56:46.308Z,16.00
2023-04-08T07:59:14.568Z,16.33
2023-04-08T08:01:42.824Z,16.40
2023-04-08T08:04:11.271Z,15.83
2023-04-08T08:06:40.948Z,16.03
2023-04-08T08:09:09.129Z,15.67
2023-04-08T08:11:37.274Z,14.27
2023-04-08T08:14:05.729Z,15.20
2023-04-08T08:16:34.621Z,15.50
2023-04-08T08:19:04.407Z,14.13
2023-04-08T08:21:32.621Z,14.40
2023-04-08T08:24:02.120Z,13.27
2023-04-08T08:26:30.373Z,13.50
2023-04-08T08:28:58.526Z,14.00
2023-04-08T08:31:26.737Z,13.67
2023-04-08T08:33:54.959Z,13.07
2023-04-08T08:36:23.369Z,12.83
2023-04-08T08:38:54.001Z,11.70
2023-04-08T08:41:23.565Z,11.97
2023-04-08T08:43:51.946Z,12.10
2023-04-08T08:46:20.378Z,12.07
2023-04-08T08:48:48.597Z,12.13
2023-04-08T08:51:16.772Z,12.93
2023-04-08T08:53:45.292Z,13.30
2023-04-08T08:56:18.224Z,12.80
2023-04-08T08:58:49.046Z,12.80
2023-04-08T09:01:32.187Z,13.10
2023-04-08T09:04:10.658Z,13.60
2023-04-08T09:06:39.141Z,14.30
2023-04-08T09:09:10.365Z,14.53
2023-04-08T09:11:39.695Z,14.20
2023-04-08T09:14:18.933Z,14.27
2023-04-08T09:16:47.140Z,14.73
2023-04-08T09:19:15.506Z,15.00
2023-04-08T09:21:43.749Z,18.23
2023-04-08T09:24:29.405Z,17.10
2023-04-08T09:26:57.617Z,17.13
2023-04-08T09:29:29.849Z,15.43
2023-04-08T09:32:01.420Z,14.10
2023-04-08T09:34:32.265Z,14.70
2023-04-08T09:37:00.774Z,15.33
2023-04-08T09:39:29.204Z,15.50
2023-04-08T09:42:00.974Z,16.27
2023-04-08T09:44:31.444Z,18.23
2023-04-08T09:47:03.564Z,15.70
2023-04-08T09:49:36.491Z,16.17
2023-04-08T09:52:08.673Z,18.93
2023-04-08T09:54:42.129Z,18.10
2023-04-08T09:57:12.692Z,19.20
2023-04-08T09:59:47.106Z,20.57
2023-04-08T10:02:16.489Z,21.17
2023-04-08T10:04:47.579Z,21.93
2023-04-08T10:07:15.878Z,21.47
2023-04-08T10:09:44.229Z,21.33
2023-04-08T10:12:12.577Z,22.20
2023-04-08T10:14:42.296Z,21.07
2023-04-08T10:17:26.675Z,21.67
2023-04-08T10:19:54.841Z,23.10
2023-04-08T10:22:37.874Z,22.83
2023-04-08T10:25:25.466Z,20.90
2023-04-08T10:27:53.899Z,21.27
2023-04-08T10:30:37.066Z,23.00
2023-04-08T10:33:12.165Z,20.87
2023-04-08T10:35:42.820Z,19.47
2023-04-08T10:38:12.796Z,19.80
2023-04-08T10:40:41.550Z,18.63
2023-04-08T10:43:09.963Z,20.30
2023-04-08T10:45:38.176Z,18.47
2023-04-08T10:48:18.785Z,19.10
2023-04-08T10:50:54.220Z,17.80
2023-04-08T10:53:25.964Z,17.87
2023-04-08T10:55:54.146Z,18.43
2023-04-08T10:58:22.312Z,18.47
2023-04-08T11:00:50.463Z,19.93
2023-04-08T11:03:21.143Z,18.93
2023-04-08T11:05:50.858Z,19.40
2023-04-08T11:08:20.893Z,18.10
2023-04-08T11:10:50.031Z,18.10
2023-04-08T11:13:18.247Z,18.97
2023-04-08T11:15:46.601Z,19.03
2023-04-08T11:18:14.787Z,19.13
2023-04-08T11:20:45.465Z,17.90
2023-04-08T11:23:15.005Z,17.40
2023-04-08T11:25:43.554Z,16.67
2023-04-08T11:28:12.016Z,17.63
2023-04-08T11:30:40.971Z,17.43
2023-04-08T11:33:09.674Z,17.57
2023-04-08T11:35:41.550Z,18.73
2023-04-08T11:38:11.498Z,17.87
2023-04-08T11:40:39.802Z,17.50
2023-04-08T11:43:11.577Z,18.87
2023-04-08T11:45:40.572Z,18.17
2023-04-08T11:48:12.367Z,18.17
2023-04-08T11:50:40.701Z,17.87
2023-04-08T11:53:20.421Z,17.63
2023-04-08T11:55:48.870Z,17.87
2023-04-08T11:58:17.400Z,15.97
2023-04-08T12:00:46.689Z,17.27
2023-04-08T12:03:15.049Z,16.07
2023-04-08T12:05:43.488Z,16.23
2023-04-08T12:08:11.705Z,16.50
2023-04-08T12:10:41.232Z,18.50
2023-04-08T12:13:09.459Z,18.57
2023-04-08T12:15:37.781Z,18.23
2023-04-08T12:18:06.294Z,17.77
2023-04-08T12:20:34.547Z,19.33
2023-04-08T12:23:02.861Z,18.23
2023-04-08T12:25:31.486Z,18.23
2023-04-08T12:28:01.263Z,17.87
2023-04-08T12:30:29.453Z,17.50
2023-04-08T12:32:57.763Z,18.60
2023-04-08T12:35:26.180Z,18.87
2023-04-08T12:37:54.337Z,19.43
2023-04-08T12:40:22.566Z,17.77
2023-04-08T12:42:51.108Z,19.07
2023-04-08T12:45:20.580Z,19.93
2023-04-08T12:47:48.932Z,19.63
2023-04-08T12:50:17.377Z,20.03
2023-04-08T12:52:45.570Z,20.40
2023-04-08T12:55:13.833Z,21.33
2023-04-08T12:57:41.981Z,21.80
2023-04-08T13:00:11.185Z,21.67
2023-04-08T13:02:42.173Z,21.67
2023-04-08T13:05:10.804Z,22.20
2023-04-08T13:07:38.977Z,23.10
2023-04-08T13:10:07.868Z,22.03
2023-04-08T13:12:36.389Z,22.30
2023-04-08T13:15:05.037Z,22.93
2023-04-08T13:17:33.306Z,22.53
2023-04-08T13:20:03.084Z,22.93
2023-04-08T13:22:31.262Z,23.67
2023-04-08T13:24:59.430Z,22.97
2023-04-08T13:27:27.594Z,22.17
2023-04-08T13:29:55.944Z,21.70
2023-04-08T13:32:24.109Z,19.97
2023-04-08T13:34:52.300Z,20.40
2023-04-08T13:37:22.015Z,20.80
2023-04-08T13:39:50.369Z,22.33
2023-04-08T13:42:18.515Z,23.07
2023-04-08T13:44:46.674Z,23.70
2023-04-08T13:47:14.853Z,25.87
2023-04-08T13:49:43.029Z,24.13
2023-04-08T13:52:11.287Z,23.50
2023-04-08T13:54:40.824Z,23.93
2023-04-08T13:57:09.251Z,23.07
2023-04-08T13:59:37.444Z,21.90
2023-04-08T14:02:05.838Z,21.60
2023-04-08T14:04:34.381Z,20.93
2023-04-08T14:07:02.584Z,20.83
2023-04-08T14:09:30.761Z,19.50
2023-04-08T14:12:00.327Z,18.80
2023-04-08T14:14:28.465Z,18.77
2023-04-08T14:16:56.961Z,16.73
2023-04-08T14:19:25.302Z,15.07
2023-04-08T14:21:53.479Z,14.07
2023-04-08T14:24:21.842Z,13.20
2023-04-08T14:26:50.049Z,12.33
2023-04-08T14:29:19.605Z,10.57
2023-04-08T14:31:47.796Z,10.90
2023-04-08T14:34:16.008Z,11.13
2023-04-08T14:36:45.327Z,10.83
2023-04-08T14:39:13.661Z,10.73
2023-04-08T14:41:41.835Z,11.53
2023-04-08T14:44:10.110Z,11.03
2023-04-08T14:46:39.743Z,11.40
2023-04-08T14:49:08.046Z,11.00
2023-04-08T14:51:37.760Z,10.20
2023-04-08T14:54:06.193Z,10.27
2023-04-08T14:56:34.367Z,10.30
2023-04-08T14:59:02.535Z,9.37
2023-04-08T15:01:32.274Z,9.57
2023-04-08T15:04:01.959Z,8.80
2023-04-08T15:06:30.959Z,9.20
2023-04-08T15:08:59.115Z,9.10
2023-04-08T15:11:27.333Z,8.33
2023-04-08T15:13:55.746Z,8.70
2023-04-08T15:16:23.908Z,8.50
2023-04-08T15:18:52.286Z,8.67
2023-04-08T15:21:22.799Z,9.33
2023-04-08T15:23:50.970Z,8.83
2023-04-08T15:26:19.176Z,9.70
2023-04-08T15:28:47.384Z,10.47
2023-04-08T15:31:15.864Z,10.00
2023-04-08T15:33:46.069Z,11.73
2023-04-08T15:36:19.624Z,12.30
2023-04-08T15:38:49.662Z,12.00
2023-04-08T15:41:19.156Z,12.57
2023-04-08T15:43:47.537Z,13.00
2023-04-08T15:46:19.096Z,12.90
2023-04-08T15:48:47.377Z,12.67
2023-04-08T15:51:15.596Z,12.67
2023-04-08T15:53:44.106Z,12.37
2023-04-08T15:56:16.206Z,11.87
2023-04-08T15:58:44.868Z,11.63
2023-04-08T16:01:13.333Z,12.30
2023-04-08T16:03:42.041Z,11.30
2023-04-08T16:06:10.280Z,11.23
2023-04-08T16:08:38.644Z,11.60
2023-04-08T16:11:08.032Z,10.23
2023-04-08T16:13:39.065Z,10.37
2023-04-08T16:16:08.753Z,10.33
2023-04-08T16:18:37.606Z,9.30
2023-04-08T16:21:06.518Z,9.30
2023-04-08T16:23:37.373Z,9.90
2023-04-08T16:26:05.637Z,8.90
2023-04-08T16:28:33.865Z,9.20
2023-04-08T16:31:03.758Z,9.67
2023-04-08T16:33:31.978Z,10.03
2023-04-08T16:36:00.805Z,10.10
2023-04-08T16:38:29.195Z,9.63
2023-04-08T16:40:58.746Z,9.27
2023-04-08T16:43:27.283Z,8.67
2023-04-08T16:45:55.757Z,9.57
2023-04-08T16:48:26.064Z,9.70
2023-04-08T16:50:54.253Z,10.23
2023-04-08T16:53:22.461Z,9.97
2023-04-08T16:55:50.624Z,10.70
2023-04-08T16:58:18.782Z,10.53
2023-04-08T17:00:47.070Z,11.53
2023-04-08T17:03:15.714Z,10.93
2023-04-08T17:05:45.330Z,10.33
2023-04-08T17:08:13.784Z,10.00
2023-04-08T17:10:43.212Z,9.60
2023-04-08T17:13:12.993Z,8.97
2023-04-08T17:15:42.911Z,8.77
2023-04-08T17:18:11.339Z,9.20
2023-04-08T17:20:39.510Z,9.27
2023-04-08T17:23:09.693Z,9.13
2023-04-08T17:25:38.055Z,9.10
2023-04-08T17:28:06.223Z,9.57
2023-04-08T17:30:34.372Z,7.97
2023-04-08T17:33:03.058Z,8.83
2023-04-08T17:35:31.460Z,8.70
2023-04-08T17:37:59.637Z,8.83
2023-04-08T17:40:29.186Z,8.93
2023-04-08T17:42:57.642Z,9.23
2023-04-08T17:45:25.977Z,9.87
2023-04-08T17:47:54.170Z,9.57
2023-04-08T17:50:22.378Z,9.73
2023-04-08T17:52:50.543Z,9.13
2023-04-08T17:55:18.749Z,8.33
2023-04-08T17:57:50.742Z,8.50
2023-04-08T18:00:18.971Z,8.60
2023-04-08T18:02:48.923Z,8.80
2023-04-08T18:05:18.273Z,9.27
2023-04-08T18:07:46.442Z,8.80
2023-04-08T18:10:14.720Z,8.77
2023-04-08T18:12:42.893Z,8.50
2023-04-08T18:15:13.092Z,8.73
2023-04-08T18:17:41.273Z,8.10
2023-04-08T18:20:09.961Z,8.07
2023-04-08T18:22:38.110Z,9.10
2023-04-08T18:25:06.797Z,9.07
2023-04-08T18:27:34.957Z,8.93
2023-04-08T18:30:03.154Z,9.37
2023-04-08T18:32:32.741Z,10.53
2023-04-08T18:35:00.941Z,10.53
2023-04-08T18:37:30.293Z,9.80
2023-04-08T18:39:58.830Z,10.67
2023-04-08T18:42:27.022Z,10.60
2023-04-08T18:44:55.292Z,12.43
2023-04-08T18:47:23.509Z,12.47
2023-04-08T18:49:53.095Z,12.23
2023-04-08T18:52:21.267Z,12.33
2023-04-08T18:54:49.418Z,15.00
2023-04-08T18:57:17.655Z,13.40
2023-04-08T18:59:48.379Z,13.97
2023-04-08T19:02:16.765Z,13.00
2023-04-08T19:04:44.965Z,13.80
2023-04-08T19:07:14.454Z,13.63
2023-04-08T19:09:42.780Z,14.00
2023-04-08T19:12:10.932Z,13.60
2023-04-08T19:14:39.421Z,13.77
2023-04-08T19:17:09.550Z,12.77
2023-04-08T19:19:38.771Z,13.27
2023-04-08T19:22:07.132Z,13.63
2023-04-08T19:24:36.655Z,13.17
2023-04-08T19:27:04.960Z,15.03
2023-04-08T19:29:34.763Z,14.80
2023-04-08T19:32:04.148Z,13.90
2023-04-08T19:34:32.513Z,14.50
2023-04-08T19:37:00.738Z,14.80
2023-04-08T19:39:29.097Z,14.80
2023-04-08T19:41:58.741Z,14.47
2023-04-08T19:44:29.555Z,16.20
2023-04-08T19:46:58.042Z,15.03
2023-04-08T19:49:27.141Z,15.43
2023-04-08T19:51:56.583Z,15.27
2023-04-08T19:54:24.848Z,14.27
2023-04-08T19:56:53.437Z,14.20
2023-04-08T19:59:24.897Z,14.67
2023-04-08T20:01:53.402Z,13.60
2023-04-08T20:04:24.491Z,14.90
2023-04-08T20:06:53.036Z,14.97
2023-04-08T20:09:21.523Z,15.80
2023-04-08T20:11:49.749Z,15.63
2023-04-08T20:14:17.962Z,16.00
2023-04-08T20:16:48.460Z,15.73
2023-04-08T20:19:16.803Z,15.20
2023-04-08T20:21:45.070Z,14.97
2023-04-08T20:24:13.268Z,15.00
2023-04-08T20:26:41.559Z,15.87
2023-04-08T20:29:09.836Z,16.07
2023-04-08T20:31:38.131Z,14.87
2023-04-08T20:34:08.544Z,15.27
2023-04-08T20:36:39.058Z,16.20
2023-04-08T20:39:07.611Z,16.53
2023-04-08T20:41:37.998Z,15.70
2023-04-08T20:44:09.514Z,14.60
2023-04-08T20:46:38.150Z,15.93
2023-04-08T20:49:08.112Z,14.67
2023-04-08T20:51:36.432Z,15.33
2023-04-08T20:54:04.866Z,14.67
2023-04-08T20:56:33.452Z,15.63
2023-04-08T20:59:01.832Z,14.10
2023-04-08T21:01:30.145Z,14.90
2023-04-08T21:04:00.705Z,15.87
2023-04-08T21:06:31.674Z,15.30
2023-04-08T21:09:00.226Z,16.43
2023-04-08T21:11:28.643Z,15.23
2023-04-08T21:13:56.946Z,16.13
2023-04-08T21:16:26.689Z,16.53
2023-04-08T21:18:54.976Z,17.57
2023-04-08T21:21:23.218Z,17.97
2023-04-08T21:23:52.728Z,18.43
2023-04-08T21:26:21.313Z,19.63
2023-04-08T21:28:50.087Z,21.13
2023-04-08T21:31:18.493Z,22.23
2023-04-08T21:33:46.637Z,21.67
2023-04-08T21:36:14.868Z,22.87
2023-04-08T21:38:43.695Z,22.57
2023-04-08T21:41:13.234Z,25.13
2023-04-08T21:43:41.400Z,25.70
2023-04-08T21:46:09.566Z,25.27
2023-04-08T21:48:37.717Z,26.63
2023-04-08T21:51:06.871Z,26.27
2023-04-08T21:53:35.211Z,27.73
2023-04-08T21:56:03.393Z,26.53
2023-04-08T21:58:33.689Z,25.40
2023-04-08T22:01:01.918Z,24.27
2023-04-08T22:03:30.150Z,24.37
2023-04-08T22:05:58.374Z,23.73
2023-04-08T22:08:27.623Z,22.20
2023-04-08T22:10:55.808Z,26.73
2023-04-08T22:13:23.962Z,25.50
2023-04-08T22:15:53.475Z,25.67
2023-04-08T22:18:21.646Z,24.80
2023-04-08T22:20:49.828Z,26.33
2023-04-08T22:23:18.013Z,25.73
2023-04-08T22:25:46.173Z,24.57
2023-04-08T22:28:14.333Z,26.47
2023-04-08T22:30:42.537Z,25.80
2023-04-08T22:33:12.389Z,28.37
2023-04-08T22:35:40.585Z,27.10
2023-04-08T22:38:08.745Z,27.83
2023-04-08T22:40:37.589Z,26.83
2023-04-08T22:43:05.806Z,27.73
2023-04-08T22:45:34.244Z,28.33
2023-04-08T22:48:02.427Z,26.77
2023-04-08T22:50:33.205Z,26.50
2023-04-08T22:53:01.806Z,27.07
2023-04-08T22:55:29.970Z,25.93
2023-04-08T22:57:58.224Z,27.53
2023-04-08T23:00:26.368Z,27.50
2023-04-08T23:02:54.702Z,27.57
2023-04-08T23:05:23.026Z,26.83
2023-04-08T23:07:52.527Z,25.83
2023-04-08T23:10:20.807Z,26.97
2023-04-08T23:12:48.973Z,25.97
2023-04-08T23:15:17.438Z,25.77
2023-04-08T23:17:45.868Z,27.00
2023-04-08T23:20:14.528Z,26.20
2023-04-08T23:22:42.763Z,26.83
2023-04-08T23:25:12.597Z,26.47
2023-04-08T23:27:40.818Z,26.30
2023-04-08T23:30:09.597Z,25.77
2023-04-08T23:32:37.853Z,26.10
2023-04-08T23:35:06.287Z,26.87
2023-04-08T23:37:34.475Z,26.77
2023-04-08T23:40:02.669Z,26.90
2023-04-08T23:42:32.167Z,26.97
2023-04-08T23:45:00.332Z,27.90
2023-04-08T23:47:28.904Z,26.67
2023-04-08T23:49:57.131Z,26.60
2023-04-08T23:52:25.315Z,28.03
2023-04-08T23:54:53.628Z,25.60
2023-04-08T23:57:21.794Z,27.37
2023-04-08T23:59:51.305Z,27.50
